sensor_id;sensor_type;location;lat;lon;timestamp;P1;durP1;ratioP1;P2;durP2;ratioP2
64018;SDS011;66942;52.138;5.216;2023-04-10T00:01:13;14.8;;;13.8;;
64018;SDS011;66942;52.138;5.216;2023-04-10T00:02:50;14.6;;;13.6;;
64018;SDS011;66942;52.138;5.216;2023-04-10T00:06:03;14.7;;;13.8;;
64018;SDS011;66942;52.138;5.216;2023-04-10T00:07:40;15.2;;;14.1;;
64018;SDS011;66942;52.138;5.216;2023-04-10T00:09:17;14.5;;;13.6;;
64018;SDS011;66942;52.138;5.216;2023-04-10T00:12:29;14.9;;;14.0;;
64018;SDS011;66942;52.138;5.216;2023-04-10T00:14:06;14.9;;;13.8;;
64018;SDS011;66942;52.138;5.216;2023-04-10T00:15:43;15.4;;;14.3;;
64018;SDS011;66942;52.138;5.216;2023-04-10T00:18:56;14.6;;;13.6;;
64018;SDS011;66942;52.138;5.216;2023-04-10T00:20:32;14.8;;;13.9;;
64018;SDS011;66942;52.138;5.216;2023-04-10T00:22:09;15.8;;;14.8;;
64018;SDS011;66942;52.138;5.216;2023-04-10T00:23:45;15.7;;;14.5;;
64018;SDS011;66942;52.138;5.216;2023-04-10T00:26:58;15.3;;;14.2;;
64018;SDS011;66942;52.138;5.216;2023-04-10T00:28:34;15.6;;;14.6;;
64018;SDS011;66942;52.138;5.216;2023-04-10T00:30:10;15.1;;;14.1;;
64018;SDS011;66942;52.138;5.216;2023-04-10T00:33:24;14.5;;;13.6;;
64018;SDS011;66942;52.138;5.216;2023-04-10T00:35:00;14.4;;;13.5;;
64018;SDS011;66942;52.138;5.216;2023-04-10T00:36:37;15.5;;;14.4;;
64018;SDS011;66942;52.138;5.216;2023-04-10T00:39:48;16.2;;;15.1;;
64018;SDS011;66942;52.138;5.216;2023-04-10T00:41:25;14.9;;;13.9;;
64018;SDS011;66942;52.138;5.216;2023-04-10T00:43:01;15.0;;;14.0;;
64018;SDS011;66942;52.138;5.216;2023-04-10T00:44:37;15.2;;;14.1;;
64018;SDS011;66942;52.138;5.216;2023-04-10T00:47:49;15.8;;;14.7;;
64018;SDS011;66942;52.138;5.216;2023-04-10T00:49:26;14.9;;;13.9;;
64018;SDS011;66942;52.138;5.216;2023-04-10T00:51:03;15.5;;;14.3;;
64018;SDS011;66942;52.138;5.216;2023-04-10T00:54:17;14.1;;;13.2;;
64018;SDS011;66942;52.138;5.216;2023-04-10T00:55:53;15.3;;;14.2;;
64018;SDS011;66942;52.138;5.216;2023-04-10T00:57:30;15.2;;;14.2;;
64018;SDS011;66942;52.138;5.216;2023-04-10T01:00:43;15.3;;;14.3;;
64018;SDS011;66942;52.138;5.216;2023-04-10T01:02:21;14.9;;;13.9;;
64018;SDS011;66942;52.138;5.216;2023-04-10T01:03:58;15.7;;;14.6;;
64018;SDS011;66942;52.138;5.216;2023-04-10T01:05:34;14.8;;;13.8;;
64018;SDS011;66942;52.138;5.216;2023-04-10T01:09:04;15.3;;;14.3;;
64018;SDS011;66942;52.138;5.216;2023-04-10T01:11:01;15.5;;;14.5;;
64018;SDS011;66942;52.138;5.216;2023-04-10T01:12:45;15.1;;;14.1;;
64018;SDS011;66942;52.138;5.216;2023-04-10T01:14:32;15.1;;;14.1;;
64018;SDS011;66942;52.138;5.216;2023-04-10T01:16:17;16.0;;;14.9;;
64018;SDS011;66942;52.138;5.216;2023-04-10T01:19:49;15.5;;;14.5;;
64018;SDS011;66942;52.138;5.216;2023-04-10T01:21:44;14.1;;;13.2;;
64018;SDS011;66942;52.138;5.216;2023-04-10T01:23:28;15.2;;;14.2;;
64018;SDS011;66942;52.138;5.216;2023-04-10T01:25:52;14.4;;;13.5;;
64018;SDS011;66942;52.138;5.216;2023-04-10T01:27:36;14.1;;;13.1;;
64018;SDS011;66942;52.138;5.216;2023-04-10T01:29:19;13.9;;;13.0;;
64018;SDS011;66942;52.138;5.216;2023-04-10T01:30:58;15.1;;;14.1;;
64018;SDS011;66942;52.138;5.216;2023-04-10T01:34:16;14.8;;;13.8;;
64018;SDS011;66942;52.138;5.216;2023-04-10T01:35:57;14.7;;;13.8;;
64018;SDS011;66942;52.138;5.216;2023-04-10T01:37:41;14.7;;;13.8;;
64018;SDS011;66942;52.138;5.216;2023-04-10T01:39:19;14.0;;;13.0;;
64018;SDS011;66942;52.138;5.216;2023-04-10T01:42:37;14.0;;;13.1;;
64018;SDS011;66942;52.138;5.216;2023-04-10T01:44:18;14.9;;;13.9;;
64018;SDS011;66942;52.138;5.216;2023-04-10T01:45:58;15.1;;;14.1;;
64018;SDS011;66942;52.138;5.216;2023-04-10T01:47:37;14.1;;;13.1;;
64018;SDS011;66942;52.138;5.216;2023-04-10T01:50:51;13.8;;;12.9;;
64018;SDS011;66942;52.138;5.216;2023-04-10T01:52:30;13.6;;;12.7;;
64018;SDS011;66942;52.138;5.216;2023-04-10T01:54:08;14.9;;;13.9;;
64018;SDS011;66942;52.138;5.216;2023-04-10T01:55:45;14.6;;;13.6;;
64018;SDS011;66942;52.138;5.216;2023-04-10T01:58:59;13.8;;;12.9;;
64018;SDS011;66942;52.138;5.216;2023-04-10T02:00:37;14.6;;;13.5;;
64018;SDS011;66942;52.138;5.216;2023-04-10T02:02:14;14.1;;;13.0;;
64018;SDS011;66942;52.138;5.216;2023-04-10T02:05:27;14.0;;;13.1;;
64018;SDS011;66942;52.138;5.216;2023-04-10T02:07:21;14.1;;;13.2;;
64018;SDS011;66942;52.138;5.216;2023-04-10T02:09:16;14.1;;;13.0;;
64018;SDS011;66942;52.138;5.216;2023-04-10T02:11:01;13.8;;;12.9;;
64018;SDS011;66942;52.138;5.216;2023-04-10T02:12:45;13.7;;;12.9;;
64018;SDS011;66942;52.138;5.216;2023-04-10T02:16:03;13.7;;;12.8;;
64018;SDS011;66942;52.138;5.216;2023-04-10T02:17:42;13.1;;;12.3;;
64018;SDS011;66942;52.138;5.216;2023-04-10T02:19:19;14.0;;;13.1;;
64018;SDS011;66942;52.138;5.216;2023-04-10T02:20:58;13.9;;;13.0;;
64018;SDS011;66942;52.138;5.216;2023-04-10T02:24:11;14.2;;;13.2;;
64018;SDS011;66942;52.138;5.216;2023-04-10T02:25:47;14.2;;;13.2;;
64018;SDS011;66942;52.138;5.216;2023-04-10T02:27:27;13.7;;;12.8;;
64018;SDS011;66942;52.138;5.216;2023-04-10T02:30:41;12.6;;;11.9;;
64018;SDS011;66942;52.138;5.216;2023-04-10T02:32:17;12.7;;;11.9;;
64018;SDS011;66942;52.138;5.216;2023-04-10T02:33:53;13.6;;;12.8;;
64018;SDS011;66942;52.138;5.216;2023-04-10T02:35:29;13.6;;;12.5;;
64018;SDS011;66942;52.138;5.216;2023-04-10T02:38:42;13.7;;;12.8;;
64018;SDS011;66942;52.138;5.216;2023-04-10T02:40:18;12.5;;;11.8;;
64018;SDS011;66942;52.138;5.216;2023-04-10T02:41:54;13.0;;;12.2;;
64018;SDS011;66942;52.138;5.216;2023-04-10T02:45:07;12.8;;;12.1;;
64018;SDS011;66942;52.138;5.216;2023-04-10T02:46:43;12.8;;;12.0;;
64018;SDS011;66942;52.138;5.216;2023-04-10T02:48:19;12.8;;;12.0;;
64018;SDS011;66942;52.138;5.216;2023-04-10T02:51:33;12.9;;;12.1;;
64018;SDS011;66942;52.138;5.216;2023-04-10T02:53:09;12.5;;;11.7;;
64018;SDS011;66942;52.138;5.216;2023-04-10T02:54:45;13.2;;;12.4;;
64018;SDS011;66942;52.138;5.216;2023-04-10T02:57:57;12.7;;;11.9;;
64018;SDS011;66942;52.138;5.216;2023-04-10T02:59:33;12.5;;;11.7;;
64018;SDS011;66942;52.138;5.216;2023-04-10T03:01:09;12.6;;;11.9;;
64018;SDS011;66942;52.138;5.216;2023-04-10T03:02:46;12.1;;;11.4;;
64018;SDS011;66942;52.138;5.216;2023-04-10T03:05:58;13.4;;;12.3;;
64018;SDS011;66942;52.138;5.216;2023-04-10T03:07:34;12.9;;;12.0;;
64018;SDS011;66942;52.138;5.216;2023-04-10T03:09:10;12.8;;;11.9;;
64018;SDS011;66942;52.138;5.216;2023-04-10T03:12:22;12.1;;;11.4;;
64018;SDS011;66942;52.138;5.216;2023-04-10T03:13:59;12.9;;;11.9;;
64018;SDS011;66942;52.138;5.216;2023-04-10T03:15:35;12.3;;;11.6;;
64018;SDS011;66942;52.138;5.216;2023-04-10T03:18:47;12.1;;;11.4;;
64018;SDS011;66942;52.138;5.216;2023-04-10T03:20:23;12.3;;;11.4;;
64018;SDS011;66942;52.138;5.216;2023-04-10T03:21:59;11.9;;;11.2;;
64018;SDS011;66942;52.138;5.216;2023-04-10T03:23:35;11.7;;;11.0;;
64018;SDS011;66942;52.138;5.216;2023-04-10T03:26:48;12.5;;;11.7;;
64018;SDS011;66942;52.138;5.216;2023-04-10T03:28:24;12.0;;;11.3;;
64018;SDS011;66942;52.138;5.216;2023-04-10T03:30:00;11.7;;;11.0;;
64018;SDS011;66942;52.138;5.216;2023-04-10T03:33:12;11.7;;;11.0;;
64018;SDS011;66942;52.138;5.216;2023-04-10T03:34:48;12.6;;;11.9;;
64018;SDS011;66942;52.138;5.216;2023-04-10T03:36:25;12.6;;;11.8;;
64018;SDS011;66942;52.138;5.216;2023-04-10T03:39:37;12.7;;;11.9;;
64018;SDS011;66942;52.138;5.216;2023-04-10T03:41:13;12.0;;;11.3;;
64018;SDS011;66942;52.138;5.216;2023-04-10T03:42:49;12.5;;;11.7;;
64018;SDS011;66942;52.138;5.216;2023-04-10T03:46:01;12.7;;;11.8;;
64018;SDS011;66942;52.138;5.216;2023-04-10T03:47:37;12.3;;;11.6;;
64018;SDS011;66942;52.138;5.216;2023-04-10T03:49:13;12.4;;;11.6;;
64018;SDS011;66942;52.138;5.216;2023-04-10T03:50:50;12.3;;;11.5;;
64018;SDS011;66942;52.138;5.216;2023-04-10T03:54:02;12.8;;;11.9;;
64018;SDS011;66942;52.138;5.216;2023-04-10T03:55:38;11.9;;;11.2;;
64018;SDS011;66942;52.138;5.216;2023-04-10T03:57:14;12.0;;;11.3;;
64018;SDS011;66942;52.138;5.216;2023-04-10T04:00:28;13.2;;;12.4;;
64018;SDS011;66942;52.138;5.216;2023-04-10T04:02:07;13.7;;;12.8;;
64018;SDS011;66942;52.138;5.216;2023-04-10T04:03:43;12.7;;;11.8;;
64018;SDS011;66942;52.138;5.216;2023-04-10T04:06:55;12.7;;;12.0;;
64018;SDS011;66942;52.138;5.216;2023-04-10T04:08:31;13.2;;;12.3;;
64018;SDS011;66942;52.138;5.216;2023-04-10T04:10:07;13.4;;;12.5;;
64018;SDS011;66942;52.138;5.216;2023-04-10T04:11:43;12.7;;;12.0;;
64018;SDS011;66942;52.138;5.216;2023-04-10T04:14:56;12.9;;;12.1;;
64018;SDS011;66942;52.138;5.216;2023-04-10T04:16:32;12.6;;;11.5;;
64018;SDS011;66942;52.138;5.216;2023-04-10T04:18:08;13.5;;;12.7;;
64018;SDS011;66942;52.138;5.216;2023-04-10T04:21:20;13.3;;;12.3;;
64018;SDS011;66942;52.138;5.216;2023-04-10T04:22:56;12.9;;;12.0;;
64018;SDS011;66942;52.138;5.216;2023-04-10T04:24:33;12.5;;;11.8;;
64018;SDS011;66942;52.138;5.216;2023-04-10T04:27:45;12.8;;;12.0;;
64018;SDS011;66942;52.138;5.216;2023-04-10T04:29:22;13.5;;;12.6;;
64018;SDS011;66942;52.138;5.216;2023-04-10T04:30:58;12.6;;;11.8;;
64018;SDS011;66942;52.138;5.216;2023-04-10T04:34:10;12.6;;;11.9;;
64018;SDS011;66942;52.138;5.216;2023-04-10T04:35:46;12.6;;;11.9;;
64018;SDS011;66942;52.138;5.216;2023-04-10T04:37:24;13.1;;;12.3;;
64018;SDS011;66942;52.138;5.216;2023-04-10T04:39:00;13.4;;;12.6;;
64018;SDS011;66942;52.138;5.216;2023-04-10T04:42:13;12.8;;;12.0;;
64018;SDS011;66942;52.138;5.216;2023-04-10T04:43:49;12.9;;;11.9;;
64018;SDS011;66942;52.138;5.216;2023-04-10T04:45:25;12.5;;;11.7;;
64018;SDS011;66942;52.138;5.216;2023-04-10T04:48:37;13.1;;;12.3;;
64018;SDS011;66942;52.138;5.216;2023-04-10T04:50:13;13.0;;;12.1;;
64018;SDS011;66942;52.138;5.216;2023-04-10T04:51:49;13.2;;;12.2;;
64018;SDS011;66942;52.138;5.216;2023-04-10T04:55:01;13.6;;;12.7;;
64018;SDS011;66942;52.138;5.216;2023-04-10T04:56:38;13.3;;;12.5;;
64018;SDS011;66942;52.138;5.216;2023-04-10T04:58:14;13.6;;;12.8;;
64018;SDS011;66942;52.138;5.216;2023-04-10T04:59:50;13.1;;;12.3;;
64018;SDS011;66942;52.138;5.216;2023-04-10T05:03:02;12.8;;;12.1;;
64018;SDS011;66942;52.138;5.216;2023-04-10T05:04:38;13.7;;;12.9;;
64018;SDS011;66942;52.138;5.216;2023-04-10T05:06:14;13.2;;;12.4;;
64018;SDS011;66942;52.138;5.216;2023-04-10T05:09:27;13.2;;;12.4;;
64018;SDS011;66942;52.138;5.216;2023-04-10T05:11:03;14.0;;;12.7;;
64018;SDS011;66942;52.138;5.216;2023-04-10T05:12:39;13.4;;;12.5;;
64018;SDS011;66942;52.138;5.216;2023-04-10T05:15:51;13.7;;;12.7;;
64018;SDS011;66942;52.138;5.216;2023-04-10T05:17:27;13.7;;;12.8;;
64018;SDS011;66942;52.138;5.216;2023-04-10T05:19:03;13.3;;;12.5;;
64018;SDS011;66942;52.138;5.216;2023-04-10T05:22:16;13.5;;;12.6;;
64018;SDS011;66942;52.138;5.216;2023-04-10T05:23:52;13.2;;;12.4;;
64018;SDS011;66942;52.138;5.216;2023-04-10T05:25:28;13.3;;;12.3;;
64018;SDS011;66942;52.138;5.216;2023-04-10T05:27:04;13.9;;;13.0;;
64018;SDS011;66942;52.138;5.216;2023-04-10T05:30:16;14.4;;;13.4;;
64018;SDS011;66942;52.138;5.216;2023-04-10T05:31:52;14.0;;;12.9;;
64018;SDS011;66942;52.138;5.216;2023-04-10T05:33:28;13.0;;;12.2;;
64018;SDS011;66942;52.138;5.216;2023-04-10T05:36:42;14.1;;;13.2;;
64018;SDS011;66942;52.138;5.216;2023-04-10T05:38:19;13.3;;;12.4;;
64018;SDS011;66942;52.138;5.216;2023-04-10T05:46:14;14.0;;;13.2;;
64018;SDS011;66942;52.138;5.216;2023-04-10T05:49:28;13.7;;;12.8;;
64018;SDS011;66942;52.138;5.216;2023-04-10T05:51:04;12.6;;;11.8;;
64018;SDS011;66942;52.138;5.216;2023-04-10T05:52:41;13.2;;;12.4;;
64018;SDS011;66942;52.138;5.216;2023-04-10T05:54:17;13.7;;;12.8;;
64018;SDS011;66942;52.138;5.216;2023-04-10T05:57:30;12.5;;;11.5;;
64018;SDS011;66942;52.138;5.216;2023-04-10T05:59:06;13.2;;;12.3;;
64018;SDS011;66942;52.138;5.216;2023-04-10T06:00:42;13.0;;;12.1;;
64018;SDS011;66942;52.138;5.216;2023-04-10T06:03:54;13.6;;;12.5;;
64018;SDS011;66942;52.138;5.216;2023-04-10T06:05:30;13.2;;;12.4;;
64018;SDS011;66942;52.138;5.216;2023-04-10T06:07:06;13.0;;;12.2;;
64018;SDS011;66942;52.138;5.216;2023-04-10T06:10:19;12.8;;;11.9;;
64018;SDS011;66942;52.138;5.216;2023-04-10T06:11:55;13.2;;;12.4;;
64018;SDS011;66942;52.138;5.216;2023-04-10T06:13:31;14.3;;;13.1;;
64018;SDS011;66942;52.138;5.216;2023-04-10T06:15:07;12.7;;;11.8;;
64018;SDS011;66942;52.138;5.216;2023-04-10T06:18:19;13.8;;;12.3;;
64018;SDS011;66942;52.138;5.216;2023-04-10T06:19:55;12.8;;;11.8;;
64018;SDS011;66942;52.138;5.216;2023-04-10T06:21:31;13.5;;;12.6;;
64018;SDS011;66942;52.138;5.216;2023-04-10T06:24:44;12.1;;;11.5;;
64018;SDS011;66942;52.138;5.216;2023-04-10T06:26:20;12.5;;;11.7;;
64018;SDS011;66942;52.138;5.216;2023-04-10T06:27:56;13.8;;;12.5;;
64018;SDS011;66942;52.138;5.216;2023-04-10T06:31:08;12.8;;;12.0;;
64018;SDS011;66942;52.138;5.216;2023-04-10T06:32:45;12.4;;;11.6;;
64018;SDS011;66942;52.138;5.216;2023-04-10T06:34:21;12.4;;;11.7;;
64018;SDS011;66942;52.138;5.216;2023-04-10T06:37:33;12.7;;;11.8;;
64018;SDS011;66942;52.138;5.216;2023-04-10T06:39:09;12.9;;;11.8;;
64018;SDS011;66942;52.138;5.216;2023-04-10T06:40:45;12.6;;;11.9;;
64018;SDS011;66942;52.138;5.216;2023-04-10T06:42:21;12.6;;;11.6;;
64018;SDS011;66942;52.138;5.216;2023-04-10T06:45:33;12.8;;;12.0;;
64018;SDS011;66942;52.138;5.216;2023-04-10T06:47:10;12.5;;;11.4;;
64018;SDS011;66942;52.138;5.216;2023-04-10T06:48:46;13.1;;;12.3;;
64018;SDS011;66942;52.138;5.216;2023-04-10T06:51:58;13.3;;;12.3;;
64018;SDS011;66942;52.138;5.216;2023-04-10T06:53:34;13.6;;;12.7;;
64018;SDS011;66942;52.138;5.216;2023-04-10T06:55:10;12.7;;;11.8;;
64018;SDS011;66942;52.138;5.216;2023-04-10T06:58:22;13.4;;;12.6;;
64018;SDS011;66942;52.138;5.216;2023-04-10T06:59:59;13.3;;;12.5;;
64018;SDS011;66942;52.138;5.216;2023-04-10T07:01:35;13.9;;;12.7;;
64018;SDS011;66942;52.138;5.216;2023-04-10T07:04:47;13.4;;;12.6;;
64018;SDS011;66942;52.138;5.216;2023-04-10T07:06:23;13.1;;;12.3;;
64018;SDS011;66942;52.138;5.216;2023-04-10T07:07:59;13.1;;;12.3;;
64018;SDS011;66942;52.138;5.216;2023-04-10T07:09:35;13.3;;;12.5;;
64018;SDS011;66942;52.138;5.216;2023-04-10T07:12:49;12.8;;;11.9;;
64018;SDS011;66942;52.138;5.216;2023-04-10T07:14:25;12.6;;;11.9;;
64018;SDS011;66942;52.138;5.216;2023-04-10T07:16:01;14.3;;;12.8;;
64018;SDS011;66942;52.138;5.216;2023-04-10T07:19:13;12.5;;;11.7;;
64018;SDS011;66942;52.138;5.216;2023-04-10T07:20:49;14.0;;;12.6;;
64018;SDS011;66942;52.138;5.216;2023-04-10T07:22:25;12.9;;;12.1;;
64018;SDS011;66942;52.138;5.216;2023-04-10T07:25:39;13.0;;;12.2;;
64018;SDS011;66942;52.138;5.216;2023-04-10T07:27:16;12.5;;;11.8;;
64018;SDS011;66942;52.138;5.216;2023-04-10T07:28:52;12.6;;;11.7;;
64018;SDS011;66942;52.138;5.216;2023-04-10T07:30:28;12.6;;;11.8;;
64018;SDS011;66942;52.138;5.216;2023-04-10T07:33:40;11.9;;;11.1;;
64018;SDS011;66942;52.138;5.216;2023-04-10T07:35:16;12.3;;;11.4;;
64018;SDS011;66942;52.138;5.216;2023-04-10T07:36:52;12.1;;;11.4;;
64018;SDS011;66942;52.138;5.216;2023-04-10T07:40:05;11.9;;;11.0;;
64018;SDS011;66942;52.138;5.216;2023-04-10T07:41:43;12.3;;;11.6;;
64018;SDS011;66942;52.138;5.216;2023-04-10T07:43:19;10.8;;;10.21;;
64018;SDS011;66942;52.138;5.216;2023-04-10T07:46:31;12.0;;;11.4;;
64018;SDS011;66942;52.138;5.216;2023-04-10T07:48:07;11.1;;;10.4;;
64018;SDS011;66942;52.138;5.216;2023-04-10T07:49:43;11.3;;;10.7;;
64018;SDS011;66942;52.138;5.216;2023-04-10T07:52:56;14.1;;;11.0;;
64018;SDS011;66942;52.138;5.216;2023-04-10T07:54:32;11.5;;;10.8;;
64018;SDS011;66942;52.138;5.216;2023-04-10T07:56:13;11.3;;;10.4;;
64018;SDS011;66942;52.138;5.216;2023-04-10T07:57:50;11.3;;;10.7;;
64018;SDS011;66942;52.138;5.216;2023-04-10T08:01:02;11.2;;;10.5;;
64018;SDS011;66942;52.138;5.216;2023-04-10T08:02:38;11.1;;;10.5;;
64018;SDS011;66942;52.138;5.216;2023-04-10T08:04:14;10.7;;;10.21;;
64018;SDS011;66942;52.138;5.216;2023-04-10T08:07:27;18.0;;;11.1;;
64018;SDS011;66942;52.138;5.216;2023-04-10T08:09:03;11.4;;;10.5;;
64018;SDS011;66942;52.138;5.216;2023-04-10T08:10:39;11.0;;;10.3;;
64018;SDS011;66942;52.138;5.216;2023-04-10T08:13:54;11.0;;;10.4;;
64018;SDS011;66942;52.138;5.216;2023-04-10T08:15:34;11.4;;;10.7;;
64018;SDS011;66942;52.138;5.216;2023-04-10T08:17:12;10.7;;;10.1;;
64018;SDS011;66942;52.138;5.216;2023-04-10T08:18:49;10.5;;;9.9;;
64018;SDS011;66942;52.138;5.216;2023-04-10T08:22:04;11.7;;;10.9;;
64018;SDS011;66942;52.138;5.216;2023-04-10T08:23:41;13.1;;;10.21;;
64018;SDS011;66942;52.138;5.216;2023-04-10T08:25:18;10.6;;;10.1;;
64018;SDS011;66942;52.138;5.216;2023-04-10T08:28:33;11.5;;;10.8;;
64018;SDS011;66942;52.138;5.216;2023-04-10T08:30:10;11.4;;;10.7;;
64018;SDS011;66942;52.138;5.216;2023-04-10T08:31:48;11.0;;;10.4;;
64018;SDS011;66942;52.138;5.216;2023-04-10T08:33:25;12.4;;;11.6;;
64018;SDS011;66942;52.138;5.216;2023-04-10T08:36:40;11.5;;;10.9;;
64018;SDS011;66942;52.138;5.216;2023-04-10T08:38:17;12.2;;;11.1;;
64018;SDS011;66942;52.138;5.216;2023-04-10T08:39:54;11.6;;;10.8;;
64018;SDS011;66942;52.138;5.216;2023-04-10T08:43:09;11.7;;;11.1;;
64018;SDS011;66942;52.138;5.216;2023-04-10T08:44:47;12.6;;;11.9;;
64018;SDS011;66942;52.138;5.216;2023-04-10T08:46:25;11.4;;;10.8;;
64018;SDS011;66942;52.138;5.216;2023-04-10T08:48:05;11.8;;;11.2;;
64018;SDS011;66942;52.138;5.216;2023-04-10T08:51:35;11.8;;;10.9;;
64018;SDS011;66942;52.138;5.216;2023-04-10T08:53:15;12.3;;;11.2;;
64018;SDS011;66942;52.138;5.216;2023-04-10T08:54:56;11.5;;;10.8;;
64018;SDS011;66942;52.138;5.216;2023-04-10T08:56:37;11.9;;;11.3;;
64018;SDS011;66942;52.138;5.216;2023-04-10T08:59:56;12.4;;;11.4;;
64018;SDS011;66942;52.138;5.216;2023-04-10T09:01:34;11.2;;;10.5;;
64018;SDS011;66942;52.138;5.216;2023-04-10T09:03:13;12.0;;;11.3;;
64018;SDS011;66942;52.138;5.216;2023-04-10T09:04:52;11.7;;;11.1;;
64018;SDS011;66942;52.138;5.216;2023-04-10T09:08:09;12.1;;;11.5;;
64018;SDS011;66942;52.138;5.216;2023-04-10T09:09:47;11.9;;;11.0;;
64018;SDS011;66942;52.138;5.216;2023-04-10T09:11:40;13.1;;;12.0;;
64018;SDS011;66942;52.138;5.216;2023-04-10T09:13:33;12.0;;;11.4;;
64018;SDS011;66942;52.138;5.216;2023-04-10T09:15:13;11.7;;;11.1;;
64018;SDS011;66942;52.138;5.216;2023-04-10T09:18:46;11.7;;;11.0;;
64018;SDS011;66942;52.138;5.216;2023-04-10T09:20:27;12.5;;;11.6;;
64018;SDS011;66942;52.138;5.216;2023-04-10T09:22:06;11.8;;;11.1;;
64018;SDS011;66942;52.138;5.216;2023-04-10T09:23:46;11.7;;;11.1;;
64018;SDS011;66942;52.138;5.216;2023-04-10T09:27:07;11.6;;;10.8;;
64018;SDS011;66942;52.138;5.216;2023-04-10T09:28:54;12.7;;;11.8;;
64018;SDS011;66942;52.138;5.216;2023-04-10T09:30:35;11.5;;;10.9;;
64018;SDS011;66942;52.138;5.216;2023-04-10T09:32:25;12.5;;;11.7;;
64018;SDS011;66942;52.138;5.216;2023-04-10T09:34:13;11.9;;;11.2;;
64018;SDS011;66942;52.138;5.216;2023-04-10T09:37:35;12.8;;;12.0;;
64018;SDS011;66942;52.138;5.216;2023-04-10T09:39:13;12.1;;;11.5;;
64018;SDS011;66942;52.138;5.216;2023-04-10T09:40:51;12.7;;;11.7;;
64018;SDS011;66942;52.138;5.216;2023-04-10T09:42:29;11.9;;;11.3;;
64018;SDS011;66942;52.138;5.216;2023-04-10T09:45:48;12.8;;;12.1;;
64018;SDS011;66942;52.138;5.216;2023-04-10T09:47:27;12.1;;;11.4;;
64018;SDS011;66942;52.138;5.216;2023-04-10T09:49:04;12.9;;;12.1;;
64018;SDS011;66942;52.138;5.216;2023-04-10T09:50:43;12.3;;;11.6;;
64018;SDS011;66942;52.138;5.216;2023-04-10T09:54:00;12.7;;;12.0;;
64018;SDS011;66942;52.138;5.216;2023-04-10T09:55:39;12.1;;;11.3;;
64018;SDS011;66942;52.138;5.216;2023-04-10T09:57:18;12.6;;;11.9;;
64018;SDS011;66942;52.138;5.216;2023-04-10T09:59:00;11.3;;;10.7;;
64018;SDS011;66942;52.138;5.216;2023-04-10T10:02:17;12.4;;;11.7;;
64018;SDS011;66942;52.138;5.216;2023-04-10T10:03:56;11.9;;;11.1;;
64018;SDS011;66942;52.138;5.216;2023-04-10T10:05:38;12.9;;;11.5;;
64018;SDS011;66942;52.138;5.216;2023-04-10T10:08:59;11.7;;;11.1;;
64018;SDS011;66942;52.138;5.216;2023-04-10T10:10:39;12.3;;;11.4;;
64018;SDS011;66942;52.138;5.216;2023-04-10T10:12:23;11.9;;;11.0;;
64018;SDS011;66942;52.138;5.216;2023-04-10T10:14:06;11.8;;;11.1;;
64018;SDS011;66942;52.138;5.216;2023-04-10T10:15:51;11.8;;;10.9;;
64018;SDS011;66942;52.138;5.216;2023-04-10T10:19:24;10.8;;;10.3;;
64018;SDS011;66942;52.138;5.216;2023-04-10T10:21:07;11.2;;;10.6;;
64018;SDS011;66942;52.138;5.216;2023-04-10T10:22:44;11.4;;;10.7;;
64018;SDS011;66942;52.138;5.216;2023-04-10T10:24:21;10.7;;;10.21;;
64018;SDS011;66942;52.138;5.216;2023-04-10T10:27:41;10.9;;;10.21;;
64018;SDS011;66942;52.138;5.216;2023-04-10T10:29:19;11.0;;;10.4;;
64018;SDS011;66942;52.138;5.216;2023-04-10T10:30:59;11.4;;;10.5;;
64018;SDS011;66942;52.138;5.216;2023-04-10T10:32:39;11.4;;;10.7;;
64018;SDS011;66942;52.138;5.216;2023-04-10T10:35:55;11.0;;;10.3;;
64018;SDS011;66942;52.138;5.216;2023-04-10T10:37:35;11.3;;;10.6;;
64018;SDS011;66942;52.138;5.216;2023-04-10T10:39:19;10.6;;;10.0;;
64018;SDS011;66942;52.138;5.216;2023-04-10T10:41:08;11.0;;;10.4;;
64018;SDS011;66942;52.138;5.216;2023-04-10T10:44:37;11.4;;;10.8;;
64018;SDS011;66942;52.138;5.216;2023-04-10T10:46:23;11.2;;;10.4;;
64018;SDS011;66942;52.138;5.216;2023-04-10T10:48:13;10.8;;;10.1;;
64018;SDS011;66942;52.138;5.216;2023-04-10T10:49:51;11.1;;;10.3;;
64018;SDS011;66942;52.138;5.216;2023-04-10T10:51:47;11.2;;;10.5;;
64018;SDS011;66942;52.138;5.216;2023-04-10T10:53:30;10.9;;;10.3;;
64018;SDS011;66942;52.138;5.216;2023-04-10T10:57:44;10.8;;;10.1;;
64018;SDS011;66942;52.138;5.216;2023-04-10T10:59:55;13.8;;;9.71;;
64018;SDS011;66942;52.138;5.216;2023-04-10T11:01:32;11.0;;;10.3;;
64018;SDS011;66942;52.138;5.216;2023-04-10T11:03:26;10.5;;;9.81;;
64018;SDS011;66942;52.138;5.216;2023-04-10T11:05:04;11.6;;;10.4;;
64018;SDS011;66942;52.138;5.216;2023-04-10T11:06:48;10.9;;;10.3;;
64018;SDS011;66942;52.138;5.216;2023-04-10T11:08:36;11.4;;;10.8;;
64018;SDS011;66942;52.138;5.216;2023-04-10T11:10:17;10.5;;;9.9;;
64018;SDS011;66942;52.138;5.216;2023-04-10T11:12:36;10.5;;;9.71;;
64018;SDS011;66942;52.138;5.216;2023-04-10T11:14:58;10.1;;;9.6;;
64018;SDS011;66942;52.138;5.216;2023-04-10T11:16:41;9.6;;;9.0;;
64018;SDS011;66942;52.138;5.216;2023-04-10T11:19:57;9.81;;;9.31;;
64018;SDS011;66942;52.138;5.216;2023-04-10T11:21:35;10.21;;;9.5;;
64018;SDS011;66942;52.138;5.216;2023-04-10T11:23:13;10.21;;;9.21;;
64018;SDS011;66942;52.138;5.216;2023-04-10T11:24:55;9.5;;;8.81;;
64018;SDS011;66942;52.138;5.216;2023-04-10T11:28:48;9.21;;;8.71;;
64018;SDS011;66942;52.138;5.216;2023-04-10T11:30:27;9.1;;;8.6;;
64018;SDS011;66942;52.138;5.216;2023-04-10T11:32:12;8.9;;;8.4;;
64018;SDS011;66942;52.138;5.216;2023-04-10T11:33:52;9.21;;;8.6;;
64018;SDS011;66942;52.138;5.216;2023-04-10T11:35:38;9.31;;;8.71;;
64018;SDS011;66942;52.138;5.216;2023-04-10T11:39:00;8.5;;;8.0;;
64018;SDS011;66942;52.138;5.216;2023-04-10T11:40:55;8.81;;;8.4;;
64018;SDS011;66942;52.138;5.216;2023-04-10T11:42:47;8.9;;;8.31;;
64018;SDS011;66942;52.138;5.216;2023-04-10T11:44:26;8.71;;;8.0;;
64018;SDS011;66942;52.138;5.216;2023-04-10T11:46:06;9.0;;;8.5;;
64018;SDS011;66942;52.138;5.216;2023-04-10T11:49:26;8.9;;;8.4;;
64018;SDS011;66942;52.138;5.216;2023-04-10T11:51:09;8.31;;;7.8;;
64018;SDS011;66942;52.138;5.216;2023-04-10T11:52:48;8.6;;;8.0;;
64018;SDS011;66942;52.138;5.216;2023-04-10T11:54:27;8.0;;;7.5;;
64018;SDS011;66942;52.138;5.216;2023-04-10T11:57:49;8.0;;;7.5;;
64018;SDS011;66942;52.138;5.216;2023-04-10T11:59:27;8.6;;;8.0;;
64018;SDS011;66942;52.138;5.216;2023-04-10T12:01:05;7.7;;;7.2;;
64018;SDS011;66942;52.138;5.216;2023-04-10T12:02:49;7.7;;;7.2;;
64018;SDS011;66942;52.138;5.216;2023-04-10T12:06:05;7.7;;;7.2;;
64018;SDS011;66942;52.138;5.216;2023-04-10T12:07:47;7.3;;;6.8;;
64018;SDS011;66942;52.138;5.216;2023-04-10T12:09:24;6.5;;;6.1;;
64018;SDS011;66942;52.138;5.216;2023-04-10T12:11:01;6.6;;;6.1;;
64018;SDS011;66942;52.138;5.216;2023-04-10T12:14:17;6.0;;;5.7;;
64018;SDS011;66942;52.138;5.216;2023-04-10T12:15:57;6.4;;;6.0;;
64018;SDS011;66942;52.138;5.216;2023-04-10T12:17:36;6.5;;;6.0;;
64018;SDS011;66942;52.138;5.216;2023-04-10T12:19:14;6.3;;;5.7;;
64018;SDS011;66942;52.138;5.216;2023-04-10T12:22:30;6.7;;;6.1;;
64018;SDS011;66942;52.138;5.216;2023-04-10T12:24:09;6.2;;;5.8;;
64018;SDS011;66942;52.138;5.216;2023-04-10T12:25:47;6.3;;;6.0;;
64018;SDS011;66942;52.138;5.216;2023-04-10T12:29:04;5.9;;;5.5;;
64018;SDS011;66942;52.138;5.216;2023-04-10T12:30:44;5.9;;;5.6;;
64018;SDS011;66942;52.138;5.216;2023-04-10T12:32:23;6.6;;;6.2;;
64018;SDS011;66942;52.138;5.216;2023-04-10T12:34:02;6.1;;;5.6;;
64018;SDS011;66942;52.138;5.216;2023-04-10T12:37:16;5.3;;;5.0;;
64018;SDS011;66942;52.138;5.216;2023-04-10T12:38:54;5.9;;;5.5;;
64018;SDS011;66942;52.138;5.216;2023-04-10T12:40:32;5.4;;;5.0;;
64018;SDS011;66942;52.138;5.216;2023-04-10T12:42:10;6.1;;;5.7;;
64018;SDS011;66942;52.138;5.216;2023-04-10T12:45:44;5.8;;;5.5;;